sensor_id;sensor_type;location;lat;lon;timestamp;temperature;humidity
54082;DHT22;39986;50.770;0.266;2024-03-02T00:04:22;6.90;99.90
54082;DHT22;39986;50.770;0.266;2024-03-02T00:19:05;6.90;99.90
54082;DHT22;39986;50.770;0.266;2024-03-02T00:28:49;7.00;99.90
54082;DHT22;39986;50.770;0.266;2024-03-02T00:33:46;6.90;99.90
54082;DHT22;39986;50.770;0.266;2024-03-02T00:36:12;6.80;99.90
54082;DHT22;39986;50.770;0.266;2024-03-02T00:48:28;7.00;99.90
54082;DHT22;39986;50.770;0.266;2024-03-02T00:50:56;6.80;99.90
54082;DHT22;39986;50.770;0.266;2024-03-02T00:55:49;6.90;99.90
54082;DHT22;39986;50.770;0.266;2024-03-02T01:05:33;7.00;99.90
54082;DHT22;39986;50.770;0.266;2024-03-02T01:12:53;7.10;99.90
54082;DHT22;39986;50.770;0.266;2024-03-02T01:17:45;6.90;99.90
54082;DHT22;39986;50.770;0.266;2024-03-02T01:29:54;6.90;99.90
54082;DHT22;39986;50.770;0.266;2024-03-02T01:34:46;6.80;99.90
54082;DHT22;39986;50.770;0.266;2024-03-02T01:37:11;6.70;99.90
54082;DHT22;39986;50.770;0.266;2024-03-02T01:39:37;6.90;99.90
54082;DHT22;39986;50.770;0.266;2024-03-02T01:42:02;6.70;99.90
54082;DHT22;39986;50.770;0.266;2024-03-02T01:49:20;6.60;99.90
54082;DHT22;39986;50.770;0.266;2024-03-02T01:51:45;6.70;99.90
54082;DHT22;39986;50.770;0.266;2024-03-02T01:54:11;6.90;99.90
54082;DHT22;39986;50.770;0.266;2024-03-02T01:56:37;6.80;99.90
54082;DHT22;39986;50.770;0.266;2024-03-02T01:59:02;6.80;99.90
54082;DHT22;39986;50.770;0.266;2024-03-02T02:01:28;6.90;99.90
54082;DHT22;39986;50.770;0.266;2024-03-02T02:06:20;6.90;99.90
54082;DHT22;39986;50.770;0.266;2024-03-02T02:08:46;7.00;99.90
54082;DHT22;39986;50.770;0.266;2024-03-02T02:11:14;6.90;99.90
54082;DHT22;39986;50.770;0.266;2024-03-02T02:13:40;6.90;99.90
54082;DHT22;39986;50.770;0.266;2024-03-02T02:16:06;6.90;99.90
54082;DHT22;39986;50.770;0.266;2024-03-02T02:20:58;7.00;99.90
54082;DHT22;39986;50.770;0.266;2024-03-02T02:23:23;7.00;99.90
54082;DHT22;39986;50.770;0.266;2024-03-02T02:30:40;7.10;99.90
54082;DHT22;39986;50.770;0.266;2024-03-02T02:33:06;7.10;99.90
54082;DHT22;39986;50.770;0.266;2024-03-02T02:40:27;7.10;99.90
54082;DHT22;39986;50.770;0.266;2024-03-02T02:42:54;7.10;99.90
54082;DHT22;39986;50.770;0.266;2024-03-02T02:45:20;7.10;99.90
54082;DHT22;39986;50.770;0.266;2024-03-02T02:47:45;7.10;99.90
54082;DHT22;39986;50.770;0.266;2024-03-02T02:50:11;7.00;99.90
54082;DHT22;39986;50.770;0.266;2024-03-02T02:55:05;7.00;99.90
54082;DHT22;39986;50.770;0.266;2024-03-02T02:57:34;7.00;99.90
54082;DHT22;39986;50.770;0.266;2024-03-02T03:00:08;6.90;99.90
54082;DHT22;39986;50.770;0.266;2024-03-02T03:02:39;7.10;99.90
54082;DHT22;39986;50.770;0.266;2024-03-02T03:05:07;7.00;99.90
54082;DHT22;39986;50.770;0.266;2024-03-02T03:10:02;6.90;99.90
54082;DHT22;39986;50.770;0.266;2024-03-02T03:12:28;6.90;99.90
54082;DHT22;39986;50.770;0.266;2024-03-02T03:17:21;7.00;99.90
54082;DHT22;39986;50.770;0.266;2024-03-02T03:19:46;7.10;99.90
54082;DHT22;39986;50.770;0.266;2024-03-02T03:24:38;7.00;99.90
54082;DHT22;39986;50.770;0.266;2024-03-02T03:31:55;7.30;99.90
54082;DHT22;39986;50.770;0.266;2024-03-02T03:34:21;7.30;99.90
54082;DHT22;39986;50.770;0.266;2024-03-02T03:36:47;7.30;99.90
54082;DHT22;39986;50.770;0.266;2024-03-02T03:44:07;7.30;99.90
54082;DHT22;39986;50.770;0.266;2024-03-02T03:48:58;7.40;99.90
54082;DHT22;39986;50.770;0.266;2024-03-02T03:51:24;7.40;99.90
54082;DHT22;39986;50.770;0.266;2024-03-02T03:53:49;7.50;99.90
54082;DHT22;39986;50.770;0.266;2024-03-02T03:58:41;7.40;99.90
54082;DHT22;39986;50.770;0.266;2024-03-02T04:01:06;7.40;99.90
54082;DHT22;39986;50.770;0.266;2024-03-02T04:03:32;7.20;99.90
54082;DHT22;39986;50.770;0.266;2024-03-02T04:05:57;7.20;99.90
54082;DHT22;39986;50.770;0.266;2024-03-02T04:08:23;7.20;99.90
54082;DHT22;39986;50.770;0.266;2024-03-02T04:10:48;7.20;99.90
54082;DHT22;39986;50.770;0.266;2024-03-02T04:13:14;7.20;99.90
54082;DHT22;39986;50.770;0.266;2024-03-02T04:18:06;7.30;99.90
54082;DHT22;39986;50.770;0.266;2024-03-02T04:25:23;7.30;99.90
54082;DHT22;39986;50.770;0.266;2024-03-02T04:30:14;7.40;99.90
54082;DHT22;39986;50.770;0.266;2024-03-02T04:32:40;7.40;99.90
54082;DHT22;39986;50.770;0.266;2024-03-02T04:37:34;7.40;99.90
54082;DHT22;39986;50.770;0.266;2024-03-02T04:44:51;7.50;99.90
54082;DHT22;39986;50.770;0.266;2024-03-02T04:47:17;7.50;99.90
54082;DHT22;39986;50.770;0.266;2024-03-02T04:49:42;7.60;99.90
54082;DHT22;39986;50.770;0.266;2024-03-02T04:54:34;7.30;99.90
54082;DHT22;39986;50.770;0.266;2024-03-02T04:57:20;7.50;99.90
54082;DHT22;39986;50.770;0.266;2024-03-02T04:59:45;7.40;99.90
54082;DHT22;39986;50.770;0.266;2024-03-02T05:02:11;7.40;99.90
54082;DHT22;39986;50.770;0.266;2024-03-02T05:04:39;7.40;99.90
54082;DHT22;39986;50.770;0.266;2024-03-02T05:07:05;7.70;99.90
54082;DHT22;39986;50.770;0.266;2024-03-02T05:09:31;7.30;99.90
54082;DHT22;39986;50.770;0.266;2024-03-02T05:11:56;7.50;99.90
54082;DHT22;39986;50.770;0.266;2024-03-02T05:14:40;7.30;99.90
54082;DHT22;39986;50.770;0.266;2024-03-02T05:17:06;7.60;99.90
54082;DHT22;39986;50.770;0.266;2024-03-02T05:19:31;7.40;99.90
54082;DHT22;39986;50.770;0.266;2024-03-02T05:21:57;7.40;99.90
54082;DHT22;39986;50.770;0.266;2024-03-02T05:24:23;7.40;99.90
54082;DHT22;39986;50.770;0.266;2024-03-02T05:29:14;7.60;99.90
54082;DHT22;39986;50.770;0.266;2024-03-02T05:31:40;7.50;99.90
54082;DHT22;39986;50.770;0.266;2024-03-02T05:34:06;7.50;99.90
54082;DHT22;39986;50.770;0.266;2024-03-02T05:36:31;7.50;99.90
54082;DHT22;39986;50.770;0.266;2024-03-02T05:38:57;7.50;99.90
54082;DHT22;39986;50.770;0.266;2024-03-02T05:43:48;7.40;99.90
54082;DHT22;39986;50.770;0.266;2024-03-02T05:48:40;7.50;99.90
54082;DHT22;39986;50.770;0.266;2024-03-02T05:53:32;7.10;99.90
54082;DHT22;39986;50.770;0.266;2024-03-02T05:58:23;7.00;99.90
54082;DHT22;39986;50.770;0.266;2024-03-02T06:01:12;7.10;99.90
54082;DHT22;39986;50.770;0.266;2024-03-02T06:03:38;7.00;99.90
54082;DHT22;39986;50.770;0.266;2024-03-02T06:06:03;6.90;99.90
54082;DHT22;39986;50.770;0.266;2024-03-02T06:10:55;6.80;99.90
54082;DHT22;39986;50.770;0.266;2024-03-02T06:13:21;6.90;99.90
54082;DHT22;39986;50.770;0.266;2024-03-02T06:15:47;6.90;99.90
54082;DHT22;39986;50.770;0.266;2024-03-02T06:18:12;6.90;99.90
54082;DHT22;39986;50.770;0.266;2024-03-02T06:23:04;6.90;99.90
54082;DHT22;39986;50.770;0.266;2024-03-02T06:25:29;7.00;99.90
54082;DHT22;39986;50.770;0.266;2024-03-02T06:37:39;6.90;99.90
54082;DHT22;39986;50.770;0.266;2024-03-02T06:42:33;6.90;99.90
54082;DHT22;39986;50.770;0.266;2024-03-02T06:49:51;6.90;99.90
54082;DHT22;39986;50.770;0.266;2024-03-02T06:52:16;6.90;99.90
54082;DHT22;39986;50.770;0.266;2024-03-02T06:57:08;6.90;99.90
54082;DHT22;39986;50.770;0.266;2024-03-02T06:59:33;7.20;99.90
54082;DHT22;39986;50.770;0.266;2024-03-02T07:01:59;6.90;99.90
54082;DHT22;39986;50.770;0.266;2024-03-02T07:06:50;7.10;99.90
54082;DHT22;39986;50.770;0.266;2024-03-02T07:09:16;7.00;99.90
54082;DHT22;39986;50.770;0.266;2024-03-02T07:11:42;7.00;99.90
54082;DHT22;39986;50.770;0.266;2024-03-02T07:14:07;6.90;99.90
54082;DHT22;39986;50.770;0.266;2024-03-02T07:16:33;7.00;99.90
54082;DHT22;39986;50.770;0.266;2024-03-02T07:19:00;7.00;99.90
54082;DHT22;39986;50.770;0.266;2024-03-02T07:21:27;6.90;99.90
54082;DHT22;39986;50.770;0.266;2024-03-02T07:23:53;7.00;99.90
54082;DHT22;39986;50.770;0.266;2024-03-02T07:26:18;7.00;99.90
54082;DHT22;39986;50.770;0.266;2024-03-02T07:31:10;7.10;99.90
54082;DHT22;39986;50.770;0.266;2024-03-02T07:33:36;7.00;99.90
54082;DHT22;39986;50.770;0.266;2024-03-02T07:36:01;6.90;99.90
54082;DHT22;39986;50.770;0.266;2024-03-02T07:40:54;7.00;99.90
54082;DHT22;39986;50.770;0.266;2024-03-02T07:43:19;6.90;99.90
54082;DHT22;39986;50.770;0.266;2024-03-02T07:50:37;6.90;99.90
54082;DHT22;39986;50.770;0.266;2024-03-02T07:53:04;7.10;99.90
54082;DHT22;39986;50.770;0.266;2024-03-02T07:55:30;6.90;99.90
54082;DHT22;39986;50.770;0.266;2024-03-02T08:00:22;7.20;99.90
54082;DHT22;39986;50.770;0.266;2024-03-02T08:05:13;7.00;99.90
54082;DHT22;39986;50.770;0.266;2024-03-02T08:07:39;6.90;99.90
54082;DHT22;39986;50.770;0.266;2024-03-02T08:14:58;6.90;99.90
54082;DHT22;39986;50.770;0.266;2024-03-02T08:19:49;6.80;99.90
54082;DHT22;39986;50.770;0.266;2024-03-02T08:22:15;7.00;99.90
54082;DHT22;39986;50.770;0.266;2024-03-02T08:24:40;6.90;99.90
54082;DHT22;39986;50.770;0.266;2024-03-02T08:27:06;7.00;99.90
54082;DHT22;39986;50.770;0.266;2024-03-02T08:31:57;7.10;99.90
54082;DHT22;39986;50.770;0.266;2024-03-02T08:34:23;7.20;99.90
54082;DHT22;39986;50.770;0.266;2024-03-02T08:36:48;7.10;99.90
54082;DHT22;39986;50.770;0.266;2024-03-02T08:39:14;7.20;99.90
54082;DHT22;39986;50.770;0.266;2024-03-02T08:41:45;7.10;99.90
54082;DHT22;39986;50.770;0.266;2024-03-02T08:44:11;7.00;99.90
54082;DHT22;39986;50.770;0.266;2024-03-02T08:51:29;6.80;99.90
54082;DHT22;39986;50.770;0.266;2024-03-02T08:53:54;6.70;99.90
54082;DHT22;39986;50.770;0.266;2024-03-02T08:56:20;6.80;99.90
54082;DHT22;39986;50.770;0.266;2024-03-02T08:58:47;6.80;99.90
54082;DHT22;39986;50.770;0.266;2024-03-02T09:01:12;6.80;99.90
54082;DHT22;39986;50.770;0.266;2024-03-02T09:06:04;6.90;99.90
54082;DHT22;39986;50.770;0.266;2024-03-02T09:10:56;6.90;99.90
54082;DHT22;39986;50.770;0.266;2024-03-02T09:13:21;7.00;99.90
54082;DHT22;39986;50.770;0.266;2024-03-02T09:15:47;7.10;99.90
54082;DHT22;39986;50.770;0.266;2024-03-02T09:20:39;7.10;99.90
54082;DHT22;39986;50.770;0.266;2024-03-02T09:23:04;7.10;99.90
54082;DHT22;39986;50.770;0.266;2024-03-02T09:25:30;7.10;99.90
54082;DHT22;39986;50.770;0.266;2024-03-02T09:27:55;7.10;99.90
54082;DHT22;39986;50.770;0.266;2024-03-02T09:30:21;7.10;99.90
54082;DHT22;39986;50.770;0.266;2024-03-02T09:37:39;7.10;99.90
54082;DHT22;39986;50.770;0.266;2024-03-02T09:40:05;7.10;99.90
54082;DHT22;39986;50.770;0.266;2024-03-02T09:42:31;7.00;99.90
54082;DHT22;39986;50.770;0.266;2024-03-02T09:47:23;7.10;99.90
54082;DHT22;39986;50.770;0.266;2024-03-02T09:49:49;7.10;99.90
54082;DHT22;39986;50.770;0.266;2024-03-02T09:52:14;7.20;99.90
54082;DHT22;39986;50.770;0.266;2024-03-02T09:54:41;7.10;99.90
54082;DHT22;39986;50.770;0.266;2024-03-02T09:57:07;7.30;99.90
54082;DHT22;39986;50.770;0.266;2024-03-02T09:59:32;7.40;99.90
54082;DHT22;39986;50.770;0.266;2024-03-02T10:02:01;7.40;99.90
54082;DHT22;39986;50.770;0.266;2024-03-02T10:04:27;7.40;99.90
54082;DHT22;39986;50.770;0.266;2024-03-02T10:07:12;7.50;99.90
54082;DHT22;39986;50.770;0.266;2024-03-02T10:09:37;7.50;99.90
54082;DHT22;39986;50.770;0.266;2024-03-02T10:12:04;7.60;99.90
54082;DHT22;39986;50.770;0.266;2024-03-02T10:14:30;7.60;99.90
54082;DHT22;39986;50.770;0.266;2024-03-02T10:17:01;7.90;99.90
54082;DHT22;39986;50.770;0.266;2024-03-02T10:19:27;8.00;99.90
54082;DHT22;39986;50.770;0.266;2024-03-02T10:21:53;8.10;99.90
54082;DHT22;39986;50.770;0.266;2024-03-02T10:24:20;7.80;99.90
54082;DHT22;39986;50.770;0.266;2024-03-02T10:26:45;7.90;99.90
54082;DHT22;39986;50.770;0.266;2024-03-02T10:29:11;7.90;99.90
54082;DHT22;39986;50.770;0.266;2024-03-02T10:31:37;7.70;99.90
54082;DHT22;39986;50.770;0.266;2024-03-02T10:34:03;7.60;99.90
54082;DHT22;39986;50.770;0.266;2024-03-02T10:36:29;7.70;99.90
54082;DHT22;39986;50.770;0.266;2024-03-02T10:41:23;7.70;99.90
54082;DHT22;39986;50.770;0.266;2024-03-02T10:43:52;7.60;99.90
54082;DHT22;39986;50.770;0.266;2024-03-02T10:46:27;7.70;99.90
54082;DHT22;39986;50.770;0.266;2024-03-02T10:48:54;8.00;99.90
54082;DHT22;39986;50.770;0.266;2024-03-02T10:51:20;8.40;99.90
54082;DHT22;39986;50.770;0.266;2024-03-02T10:53:46;8.70;99.90
54082;DHT22;39986;50.770;0.266;2024-03-02T10:56:11;10.20;99.90
54082;DHT22;39986;50.770;0.266;2024-03-02T10:58:41;10.90;99.90
54082;DHT22;39986;50.770;0.266;2024-03-02T11:01:07;10.30;99.90
54082;DHT22;39986;50.770;0.266;2024-03-02T11:03:33;9.90;99.90
54082;DHT22;39986;50.770;0.266;2024-03-02T11:06:00;10.10;99.90
54082;DHT22;39986;50.770;0.266;2024-03-02T11:08:26;9.80;99.90
54082;DHT22;39986;50.770;0.266;2024-03-02T11:10:59;10.30;99.90
54082;DHT22;39986;50.770;0.266;2024-03-02T11:13:31;10.60;99.90
54082;DHT22;39986;50.770;0.266;2024-03-02T11:15:59;10.30;99.90
54082;DHT22;39986;50.770;0.266;2024-03-02T11:18:28;9.80;99.90
54082;DHT22;39986;50.770;0.266;2024-03-02T11:20:54;9.30;99.90
54082;DHT22;39986;50.770;0.266;2024-03-02T11:23:20;8.80;99.90
54082;DHT22;39986;50.770;0.266;2024-03-02T11:26:16;8.40;99.90
54082;DHT22;39986;50.770;0.266;2024-03-02T11:28:41;7.70;99.90
54082;DHT22;39986;50.770;0.266;2024-03-02T11:31:07;7.40;99.90
54082;DHT22;39986;50.770;0.266;2024-03-02T11:33:32;7.20;99.90
54082;DHT22;39986;50.770;0.266;2024-03-02T11:35:58;6.90;99.90
54082;DHT22;39986;50.770;0.266;2024-03-02T11:38:24;7.00;99.90
54082;DHT22;39986;50.770;0.266;2024-03-02T11:40:52;6.80;99.90
54082;DHT22;39986;50.770;0.266;2024-03-02T11:43:18;6.60;99.90
54082;DHT22;39986;50.770;0.266;2024-03-02T11:45:44;6.40;99.90
54082;DHT22;39986;50.770;0.266;2024-03-02T11:48:11;6.30;99.90
54082;DHT22;39986;50.770;0.266;2024-03-02T11:50:42;6.40;99.90
54082;DHT22;39986;50.770;0.266;2024-03-02T11:53:11;6.40;99.90
54082;DHT22;39986;50.770;0.266;2024-03-02T11:55:39;6.70;99.90
54082;DHT22;39986;50.770;0.266;2024-03-02T11:58:08;6.80;99.90
54082;DHT22;39986;50.770;0.266;2024-03-02T12:03:07;7.00;99.90
54082;DHT22;39986;50.770;0.266;2024-03-02T12:05:32;7.00;99.90
54082;DHT22;39986;50.770;0.266;2024-03-02T12:08:02;7.00;99.90
54082;DHT22;39986;50.770;0.266;2024-03-02T12:10:28;6.90;99.90
54082;DHT22;39986;50.770;0.266;2024-03-02T12:12:55;7.00;99.90
54082;DHT22;39986;50.770;0.266;2024-03-02T12:15:22;7.20;99.90
54082;DHT22;39986;50.770;0.266;2024-03-02T12:17:48;7.20;99.90
54082;DHT22;39986;50.770;0.266;2024-03-02T12:20:13;7.10;99.90
54082;DHT22;39986;50.770;0.266;2024-03-02T12:22:39;7.10;99.90
54082;DHT22;39986;50.770;0.266;2024-03-02T12:25:04;7.10;99.90
54082;DHT22;39986;50.770;0.266;2024-03-02T12:32:22;7.00;99.90
54082;DHT22;39986;50.770;0.266;2024-03-02T12:34:48;7.10;99.90
54082;DHT22;39986;50.770;0.266;2024-03-02T12:37:13;7.30;99.90
54082;DHT22;39986;50.770;0.266;2024-03-02T12:39:39;7.70;99.90
54082;DHT22;39986;50.770;0.266;2024-03-02T12:42:04;7.70;99.90
54082;DHT22;39986;50.770;0.266;2024-03-02T12:44:30;8.10;99.90
54082;DHT22;39986;50.770;0.266;2024-03-02T12:46:56;8.20;99.90
54082;DHT22;39986;50.770;0.266;2024-03-02T12:49:22;8.10;99.90
54082;DHT22;39986;50.770;0.266;2024-03-02T12:51:47;8.20;99.90
54082;DHT22;39986;50.770;0.266;2024-03-02T12:54:17;8.20;99.90
54082;DHT22;39986;50.770;0.266;2024-03-02T12:56:42;7.90;99.90
54082;DHT22;39986;50.770;0.266;2024-03-02T12:59:17;7.70;99.90
54082;DHT22;39986;50.770;0.266;2024-03-02T13:01:52;7.60;99.90
54082;DHT22;39986;50.770;0.266;2024-03-02T13:04:24;7.60;99.90
54082;DHT22;39986;50.770;0.266;2024-03-02T13:06:51;7.60;99.90
54082;DHT22;39986;50.770;0.266;2024-03-02T13:09:17;7.60;99.90
54082;DHT22;39986;50.770;0.266;2024-03-02T13:11:43;7.50;99.90
54082;DHT22;39986;50.770;0.266;2024-03-02T13:14:10;7.60;99.90
54082;DHT22;39986;50.770;0.266;2024-03-02T13:16:39;7.90;99.90
54082;DHT22;39986;50.770;0.266;2024-03-02T13:19:08;7.50;99.90
54082;DHT22;39986;50.770;0.266;2024-03-02T13:21:34;7.50;99.90
54082;DHT22;39986;50.770;0.266;2024-03-02T13:24:00;7.60;99.90
54082;DHT22;39986;50.770;0.266;2024-03-02T13:26:26;7.80;99.90
54082;DHT22;39986;50.770;0.266;2024-03-02T13:28:52;8.00;99.90
54082;DHT22;39986;50.770;0.266;2024-03-02T13:31:19;8.90;99.90
54082;DHT22;39986;50.770;0.266;2024-03-02T13:33:46;10.10;99.90
54082;DHT22;39986;50.770;0.266;2024-03-02T13:36:12;10.70;99.90
54082;DHT22;39986;50.770;0.266;2024-03-02T13:38:37;10.50;99.90
54082;DHT22;39986;50.770;0.266;2024-03-02T13:41:03;11.10;99.90
54082;DHT22;39986;50.770;0.266;2024-03-02T13:43:28;11.40;99.90
54082;DHT22;39986;50.770;0.266;2024-03-02T13:45:57;12.20;99.90
54082;DHT22;39986;50.770;0.266;2024-03-02T13:48:23;12.60;99.90
54082;DHT22;39986;50.770;0.266;2024-03-02T13:50:51;14.80;99.90
54082;DHT22;39986;50.770;0.266;2024-03-02T13:53:17;16.70;99.90
54082;DHT22;39986;50.770;0.266;2024-03-02T13:55:43;16.70;99.90
54082;DHT22;39986;50.770;0.266;2024-03-02T13:58:09;17.60;99.90
54082;DHT22;39986;50.770;0.266;2024-03-02T14:00:35;18.10;99.90
54082;DHT22;39986;50.770;0.266;2024-03-02T14:03:01;18.00;99.90
54082;DHT22;39986;50.770;0.266;2024-03-02T14:05:26;18.10;99.90
54082;DHT22;39986;50.770;0.266;2024-03-02T14:07:52;18.60;99.90
54082;DHT22;39986;50.770;0.266;2024-03-02T14:10:17;18.70;99.90
54082;DHT22;39986;50.770;0.266;2024-03-02T14:12:47;18.60;99.90
54082;DHT22;39986;50.770;0.266;2024-03-02T14:15:12;17.60;99.90
54082;DHT22;39986;50.770;0.266;2024-03-02T14:17:38;17.80;99.90
54082;DHT22;39986;50.770;0.266;2024-03-02T14:20:04;17.70;99.90
54082;DHT22;39986;50.770;0.266;2024-03-02T14:22:30;18.40;99.90
54082;DHT22;39986;50.770;0.266;2024-03-02T14:24:56;19.80;99.90
54082;DHT22;39986;50.770;0.266;2024-03-02T14:27:22;20.00;99.90
54082;DHT22;39986;50.770;0.266;2024-03-02T14:29:47;20.00;99.90
54082;DHT22;39986;50.770;0.266;2024-03-02T14:32:13;20.30;99.90
54082;DHT22;39986;50.770;0.266;2024-03-02T14:34:39;20.20;99.90
54082;DHT22;39986;50.770;0.266;2024-03-02T14:37:04;20.00;99.90
54082;DHT22;39986;50.770;0.266;2024-03-02T14:39:30;19.20;99.90
54082;DHT22;39986;50.770;0.266;2024-03-02T14:42:00;17.70;99.90
54082;DHT22;39986;50.770;0.266;2024-03-02T14:44:25;17.90;99.90
54082;DHT22;39986;50.770;0.266;2024-03-02T14:46:51;17.70;99.90
54082;DHT22;39986;50.770;0.266;2024-03-02T14:49:16;17.80;99.90
54082;DHT22;39986;50.770;0.266;2024-03-02T14:51:43;17.40;99.90
54082;DHT22;39986;50.770;0.266;2024-03-02T14:54:09;17.20;99.90
54082;DHT22;39986;50.770;0.266;2024-03-02T14:56:34;17.00;99.90
54082;DHT22;39986;50.770;0.266;2024-03-02T14:59:00;16.30;99.90
54082;DHT22;39986;50.770;0.266;2024-03-02T15:01:26;16.00;99.90
54082;DHT22;39986;50.770;0.266;2024-03-02T15:03:51;16.10;99.90
54082;DHT22;39986;50.770;0.266;2024-03-02T15:06:17;16.80;99.90
54082;DHT22;39986;50.770;0.266;2024-03-02T15:08:46;17.20;99.90
54082;DHT22;39986;50.770;0.266;2024-03-02T15:11:14;16.90;99.90
54082;DHT22;39986;50.770;0.266;2024-03-02T15:13:40;17.20;99.90
54082;DHT22;39986;50.770;0.266;2024-03-02T15:16:05;16.80;99.90
54082;DHT22;39986;50.770;0.266;2024-03-02T15:20:57;13.80;99.90
54082;DHT22;39986;50.770;0.266;2024-03-02T15:23:22;13.30;99.90
54082;DHT22;39986;50.770;0.266;2024-03-02T15:25:49;12.50;99.90
54082;DHT22;39986;50.770;0.266;2024-03-02T15:28:14;11.80;99.90
54082;DHT22;39986;50.770;0.266;2024-03-02T15:30:40;12.00;99.90
54082;DHT22;39986;50.770;0.266;2024-03-02T15:33:06;12.50;99.90
54082;DHT22;39986;50.770;0.266;2024-03-02T15:35:32;13.60;99.90
54082;DHT22;39986;50.770;0.266;2024-03-02T15:37:58;13.80;99.90
54082;DHT22;39986;50.770;0.266;2024-03-02T15:40:24;13.40;99.90
54082;DHT22;39986;50.770;0.266;2024-03-02T15:42:50;12.60;99.90
54082;DHT22;39986;50.770;0.266;2024-03-02T15:45:15;12.40;99.90
54082;DHT22;39986;50.770;0.266;2024-03-02T15:47:41;12.00;99.90
54082;DHT22;39986;50.770;0.266;2024-03-02T15:50:07;11.90;99.90
54082;DHT22;39986;50.770;0.266;2024-03-02T15:52:33;11.50;99.90
54082;DHT22;39986;50.770;0.266;2024-03-02T15:54:58;11.20;99.90
54082;DHT22;39986;50.770;0.266;2024-03-02T15:59:50;10.80;99.90
54082;DHT22;39986;50.770;0.266;2024-03-02T16:02:16;10.60;99.90
54082;DHT22;39986;50.770;0.266;2024-03-02T16:04:41;10.40;99.90
54082;DHT22;39986;50.770;0.266;2024-03-02T16:07:07;10.30;99.90
54082;DHT22;39986;50.770;0.266;2024-03-02T16:09:33;10.10;99.90
54082;DHT22;39986;50.770;0.266;2024-03-02T16:11:58;10.10;99.90
54082;DHT22;39986;50.770;0.266;2024-03-02T16:14:24;9.60;99.90
54082;DHT22;39986;50.770;0.266;2024-03-02T16:16:49;9.60;99.90
54082;DHT22;39986;50.770;0.266;2024-03-02T16:19:15;9.60;99.90
54082;DHT22;39986;50.770;0.266;2024-03-02T16:21:40;9.50;99.90
54082;DHT22;39986;50.770;0.266;2024-03-02T16:24:06;9.30;99.90
54082;DHT22;39986;50.770;0.266;2024-03-02T16:26:31;9.40;99.90
54082;DHT22;39986;50.770;0.266;2024-03-02T16:29:00;9.60;99.90
54082;DHT22;39986;50.770;0.266;2024-03-02T16:31:26;9.70;99.90
54082;DHT22;39986;50.770;0.266;2024-03-02T16:34:27;9.60;99.90
54082;DHT22;39986;50.770;0.266;2024-03-02T16:36:52;9.60;99.90
54082;DHT22;39986;50.770;0.266;2024-03-02T16:39:18;9.50;99.90
54082;DHT22;39986;50.770;0.266;2024-03-02T16:41:43;9.40;99.90
54082;DHT22;39986;50.770;0.266;2024-03-02T16:44:14;9.30;99.90
54082;DHT22;39986;50.770;0.266;2024-03-02T16:46:40;9.40;99.90
54082;DHT22;39986;50.770;0.266;2024-03-02T16:49:06;9.30;99.90
54082;DHT22;39986;50.770;0.266;2024-03-02T16:51:38;9.30;99.90
54082;DHT22;39986;50.770;0.266;2024-03-02T16:54:03;9.20;99.90
54082;DHT22;39986;50.770;0.266;2024-03-02T16:56:29;9.30;99.90
54082;DHT22;39986;50.770;0.266;2024-03-02T16:59:02;9.40;99.90
54082;DHT22;39986;50.770;0.266;2024-03-02T17:01:28;9.20;99.90
54082;DHT22;39986;50.770;0.266;2024-03-02T17:03:54;9.20;99.90
54082;DHT22;39986;50.770;0.266;2024-03-02T17:06:19;9.20;99.90
54082;DHT22;39986;50.770;0.266;2024-03-02T17:08:45;9.30;99.90
54082;DHT22;39986;50.770;0.266;2024-03-02T17:11:10;9.20;99.90
54082;DHT22;39986;50.770;0.266;2024-03-02T17:13:36;9.10;99.90
54082;DHT22;39986;50.770;0.266;2024-03-02T17:16:01;8.90;99.90
54082;DHT22;39986;50.770;0.266;2024-03-02T17:18:27;8.80;99.90
54082;DHT22;39986;50.770;0.266;2024-03-02T17:20:53;8.90;99.90
54082;DHT22;39986;50.770;0.266;2024-03-02T17:23:18;8.70;99.90
54082;DHT22;39986;50.770;0.266;2024-03-02T17:25:44;8.80;99.90
54082;DHT22;39986;50.770;0.266;2024-03-02T17:30:44;8.70;99.90
54082;DHT22;39986;50.770;0.266;2024-03-02T17:33:09;8.80;99.90
54082;DHT22;39986;50.770;0.266;2024-03-02T17:35:35;8.70;99.90
54082;DHT22;39986;50.770;0.266;2024-03-02T17:38:00;8.50;99.90
54082;DHT22;39986;50.770;0.266;2024-03-02T17:40:26;8.50;99.90
54082;DHT22;39986;50.770;0.266;2024-03-02T17:42:51;8.30;99.90
54082;DHT22;39986;50.770;0.266;2024-03-02T17:47:43;8.10;99.90
54082;DHT22;39986;50.770;0.266;2024-03-02T17:50:09;8.10;99.90
54082;DHT22;39986;50.770;0.266;2024-03-02T17:52:34;8.30;99.90
54082;DHT22;39986;50.770;0.266;2024-03-02T17:55:00;8.00;99.90
54082;DHT22;39986;50.770;0.266;2024-03-02T17:59:51;8.00;99.90
54082;DHT22;39986;50.770;0.266;2024-03-02T18:02:17;7.70;99.90
54082;DHT22;39986;50.770;0.266;2024-03-02T18:04:43;7.70;99.90
54082;DHT22;39986;50.770;0.266;2024-03-02T18:07:08;7.80;99.90
54082;DHT22;39986;50.770;0.266;2024-03-02T18:09:34;7.80;99.90
54082;DHT22;39986;50.770;0.266;2024-03-02T18:12:01;7.70;99.90
54082;DHT22;39986;50.770;0.266;2024-03-02T18:16:52;7.70;99.90
54082;DHT22;39986;50.770;0.266;2024-03-02T18:19:18;7.60;99.90
54082;DHT22;39986;50.770;0.266;2024-03-02T18:21:43;7.60;99.90
54082;DHT22;39986;50.770;0.266;2024-03-02T18:24:10;7.60;99.90
54082;DHT22;39986;50.770;0.266;2024-03-02T18:26:35;7.60;99.90
54082;DHT22;39986;50.770;0.266;2024-03-02T18:29:01;7.60;99.90
54082;DHT22;39986;50.770;0.266;2024-03-02T18:31:28;7.50;99.90
54082;DHT22;39986;50.770;0.266;2024-03-02T18:33:54;7.40;99.90
54082;DHT22;39986;50.770;0.266;2024-03-02T18:36:19;7.50;99.90
54082;DHT22;39986;50.770;0.266;2024-03-02T18:38:45;7.60;99.90
54082;DHT22;39986;50.770;0.266;2024-03-02T18:41:10;7.50;99.90
54082;DHT22;39986;50.770;0.266;2024-03-02T18:43:36;7.60;99.90
54082;DHT22;39986;50.770;0.266;2024-03-02T18:46:01;7.60;99.90
54082;DHT22;39986;50.770;0.266;2024-03-02T18:48:28;7.40;99.90
54082;DHT22;39986;50.770;0.266;2024-03-02T18:53:20;7.30;99.90
54082;DHT22;39986;50.770;0.266;2024-03-02T18:55:46;7.30;99.90
54082;DHT22;39986;50.770;0.266;2024-03-02T18:58:11;7.20;99.90
54082;DHT22;39986;50.770;0.266;2024-03-02T19:00:37;7.30;99.90
54082;DHT22;39986;50.770;0.266;2024-03-02T19:03:03;7.20;99.90
54082;DHT22;39986;50.770;0.266;2024-03-02T19:05:28;7.20;99.90
54082;DHT22;39986;50.770;0.266;2024-03-02T19:07:54;7.20;99.90
54082;DHT22;39986;50.770;0.266;2024-03-02T19:10:20;7.20;99.90
54082;DHT22;39986;50.770;0.266;2024-03-02T19:12:45;7.00;99.90
54082;DHT22;39986;50.770;0.266;2024-03-02T19:15:12;7.00;99.90
54082;DHT22;39986;50.770;0.266;2024-03-02T19:17:39;7.10;99.90
54082;DHT22;39986;50.770;0.266;2024-03-02T19:20:05;7.00;99.90
54082;DHT22;39986;50.770;0.266;2024-03-02T19:25:01;7.20;99.90
54082;DHT22;39986;50.770;0.266;2024-03-02T19:27:26;7.00;99.90
54082;DHT22;39986;50.770;0.266;2024-03-02T19:29:52;7.10;99.90
54082;DHT22;39986;50.770;0.266;2024-03-02T19:32:17;7.00;99.90
54082;DHT22;39986;50.770;0.266;2024-03-02T19:34:47;6.90;99.90
54082;DHT22;39986;50.770;0.266;2024-03-02T19:39:39;6.70;99.90